createdAt,value
2018-06-01T00:00:47.003Z,11.20
2018-06-01T00:03:15.286Z,10.13
2018-06-01T00:05:43.648Z,11.73
2018-06-01T00:08:12.770Z,9.50
2018-06-01T00:10:41.180Z,10.63
2018-06-01T00:13:09.516Z,9.70
2018-06-01T00:15:37.895Z,9.40
2018-06-01T00:18:06.615Z,11.73
2018-06-01T00:20:35.218Z,12.30
2018-06-01T00:23:03.585Z,12.20
2018-06-01T00:25:31.979Z,12.57
2018-06-01T00:28:00.316Z,12.43
2018-06-01T00:30:28.683Z,13.43
2018-06-01T00:32:57.009Z,15.77
2018-06-01T00:35:25.382Z,16.97
2018-06-01T00:37:53.744Z,26.50
2018-06-01T00:40:22.567Z,77.77
2018-06-01T00:42:50.942Z,35.60
2018-06-01T00:45:19.317Z,36.73
2018-06-01T00:47:47.674Z,12.37
2018-06-01T00:50:16.040Z,13.90
2018-06-01T00:52:44.392Z,36.17
2018-06-01T00:55:25.094Z,19.80
2018-06-01T00:57:53.449Z,28.80
2018-06-01T01:00:21.806Z,12.87
2018-06-01T01:02:50.156Z,12.90
2018-06-01T01:05:18.531Z,21.70
2018-06-01T01:07:47.216Z,12.13
2018-06-01T01:10:15.592Z,10.67
2018-06-01T01:12:43.948Z,48.03
2018-06-01T01:15:12.309Z,12.17
2018-06-01T01:17:40.664Z,30.07
2018-06-01T01:20:09.033Z,18.83
2018-06-01T01:22:37.380Z,27.97
2018-06-01T01:25:05.740Z,28.27
2018-06-01T01:27:34.816Z,36.23
2018-06-01T01:30:03.194Z,22.23
2018-06-01T01:32:31.539Z,24.40
2018-06-01T01:35:01.124Z,17.90
2018-06-01T01:37:32.274Z,13.23
2018-06-01T01:40:00.638Z,13.07
2018-06-01T01:42:30.902Z,13.07
2018-06-01T01:44:59.731Z,12.67
2018-06-01T01:47:28.076Z,15.10
2018-06-01T01:49:56.461Z,13.87
2018-06-01T01:52:24.801Z,16.13
2018-06-01T01:54:53.173Z,11.77
2018-06-01T01:57:21.525Z,17.80
2018-06-01T01:59:50.545Z,21.97
2018-06-01T02:02:19.240Z,17.40
2018-06-01T02:04:47.594Z,18.93
2018-06-01T02:07:15.998Z,14.77
2018-06-01T02:09:44.594Z,18.07
2018-06-01T02:12:12.936Z,20.30
2018-06-01T02:14:41.349Z,16.00
2018-06-01T02:17:09.713Z,13.40
2018-06-01T02:19:38.080Z,15.40
2018-06-01T02:22:06.434Z,16.33
2018-06-01T02:24:34.787Z,12.70
2018-06-01T02:27:03.603Z,15.80
2018-06-01T02:29:31.983Z,12.90
2018-06-01T02:32:00.330Z,12.93
2018-06-01T02:34:28.690Z,9.67
2018-06-01T02:36:57.242Z,7.80
2018-06-01T02:39:26.350Z,8.63
2018-06-01T02:41:54.682Z,7.73
2018-06-01T02:44:23.036Z,8.47
2018-06-01T02:46:51.378Z,9.13
2018-06-01T02:49:19.743Z,9.47
2018-06-01T02:51:48.122Z,5.03
2018-06-01T02:54:16.483Z,5.87
2018-06-01T02:56:45.542Z,9.20
2018-06-01T02:59:13.881Z,7.20
2018-06-01T03:01:42.263Z,7.33
2018-06-01T03:04:10.624Z,10.47
2018-06-01T03:07:17.180Z,8.60
2018-06-01T03:09:47.086Z,6.23
2018-06-01T03:12:15.426Z,6.40
2018-06-01T03:14:43.791Z,5.13
2018-06-01T03:17:12.121Z,5.43
2018-06-01T03:19:40.457Z,8.30
2018-06-01T03:22:08.802Z,6.83
2018-06-01T03:24:37.154Z,5.93
2018-06-01T03:27:06.226Z,6.13
2018-06-01T03:29:34.588Z,5.80
2018-06-01T03:32:02.928Z,8.50
2018-06-01T03:34:31.325Z,7.20
2018-06-01T03:36:59.670Z,6.83
2018-06-01T03:39:28.022Z,4.37
2018-06-01T03:41:56.577Z,6.20
2018-06-01T03:44:24.938Z,7.30
2018-06-01T03:46:53.274Z,4.07
2018-06-01T03:49:21.608Z,6.60
2018-06-01T03:51:51.695Z,7.63
2018-06-01T03:54:20.069Z,5.53
2018-06-01T03:56:48.677Z,4.57
2018-06-01T03:59:17.040Z,6.43
2018-06-01T04:01:45.416Z,5.63
2018-06-01T04:04:14.273Z,6.53
2018-06-01T04:06:42.648Z,10.43
2018-06-01T04:09:11.361Z,6.13
2018-06-01T04:11:40.522Z,4.97
2018-06-01T04:14:09.760Z,8.73
2018-06-01T04:16:38.900Z,7.07
2018-06-01T04:19:07.248Z,5.30
2018-06-01T04:21:35.609Z,7.43
2018-06-01T04:24:03.958Z,7.43
2018-06-01T04:26:32.359Z,5.83
2018-06-01T04:29:01.440Z,4.83
2018-06-01T04:31:29.799Z,6.60
2018-06-01T04:33:58.132Z,6.10
2018-06-01T04:36:26.500Z,5.33
2018-06-01T04:38:54.824Z,6.23
2018-06-01T04:41:23.169Z,8.40
2018-06-01T04:43:51.513Z,12.87
2018-06-01T04:46:20.527Z,7.50
2018-06-01T04:48:48.858Z,8.30
2018-06-01T04:51:17.211Z,6.43
2018-06-01T04:53:45.537Z,8.00
2018-06-01T04:56:13.941Z,8.00
2018-06-01T04:58:42.252Z,4.80
2018-06-01T05:01:10.613Z,5.63
2018-06-01T05:03:39.774Z,7.53
2018-06-01T05:06:08.137Z,9.23
2018-06-01T05:08:36.479Z,8.67
2018-06-01T05:11:04.834Z,8.33
2018-06-01T05:13:33.178Z,9.10
2018-06-01T05:16:01.590Z,9.93
2018-06-01T05:18:29.913Z,10.60
2018-06-01T05:20:58.268Z,12.37
2018-06-01T05:23:26.612Z,13.80
2018-06-01T05:25:55.025Z,14.00
2018-06-01T05:28:23.417Z,12.63
2018-06-01T05:30:52.080Z,12.97
2018-06-01T05:33:20.838Z,13.77
2018-06-01T05:35:49.451Z,16.23
2018-06-01T05:38:17.791Z,13.10
2018-06-01T05:40:47.085Z,16.87
2018-06-01T05:43:16.161Z,13.90
2018-06-01T05:45:44.547Z,15.13
2018-06-01T05:48:13.193Z,15.63
2018-06-01T05:50:41.643Z,13.77
2018-06-01T05:53:10.010Z,15.77
2018-06-01T05:55:38.981Z,12.73
2018-06-01T05:58:08.225Z,12.20
2018-06-01T06:00:36.587Z,12.93
2018-06-01T06:03:04.964Z,10.60
2018-06-01T06:05:33.717Z,11.70
2018-06-01T06:08:02.118Z,11.23
2018-06-01T06:10:30.450Z,9.60
2018-06-01T06:12:58.825Z,10.10
2018-06-01T06:15:27.158Z,9.03
2018-06-01T06:17:55.987Z,9.97
2018-06-01T06:20:24.328Z,13.00
2018-06-01T06:22:52.759Z,11.50
2018-06-01T06:25:21.924Z,9.67
2018-06-01T06:27:50.277Z,10.40
2018-06-01T06:30:19.294Z,11.00
2018-06-01T06:32:47.666Z,11.23
2018-06-01T06:35:16.038Z,10.93
2018-06-01T06:37:44.409Z,10.87
2018-06-01T06:40:12.747Z,11.07
2018-06-01T06:42:41.109Z,13.20
2018-06-01T06:45:09.486Z,10.87
2018-06-01T06:47:37.848Z,10.30
2018-06-01T06:50:06.189Z,9.93
2018-06-01T06:52:34.550Z,10.97
2018-06-01T06:55:02.898Z,10.07
2018-06-01T06:57:31.686Z,9.43
2018-06-01T07:00:00.014Z,9.83
2018-06-01T07:02:28.418Z,10.30
2018-06-01T07:04:56.761Z,10.03
2018-06-01T07:07:25.196Z,10.07
2018-06-01T07:09:53.640Z,10.10
2018-06-01T07:12:22.011Z,10.90
2018-06-01T07:14:50.357Z,10.07
2018-06-01T07:17:18.711Z,9.27
2018-06-01T07:19:48.009Z,9.07
2018-06-01T07:22:16.817Z,8.47
2018-06-01T07:24:45.271Z,8.40
2018-06-01T07:27:13.607Z,10.07
2018-06-01T07:29:42.000Z,10.80
2018-06-01T07:32:10.349Z,10.97
2018-06-01T07:34:38.993Z,10.83
2018-06-01T07:37:07.335Z,12.63
2018-06-01T07:39:35.698Z,13.27
2018-06-01T07:42:04.039Z,12.47
2018-06-01T07:44:32.515Z,12.77
2018-06-01T07:47:00.873Z,13.73
2018-06-01T07:49:30.098Z,13.17
2018-06-01T07:51:58.432Z,14.03
2018-06-01T07:54:26.834Z,13.17
2018-06-01T07:56:56.563Z,13.17
2018-06-01T07:59:24.976Z,13.00
2018-06-01T08:01:53.329Z,16.20
2018-06-01T08:04:21.793Z,12.53
2018-06-01T08:06:50.169Z,12.47
2018-06-01T08:09:19.267Z,13.87
2018-06-01T08:11:47.621Z,15.33
2018-06-01T08:14:16.056Z,13.53
2018-06-01T08:16:44.753Z,13.07
2018-06-01T08:19:13.127Z,14.07
2018-06-01T08:21:41.521Z,13.57
2018-06-01T08:24:10.189Z,13.87
2018-06-01T08:26:38.532Z,13.17
2018-06-01T08:29:06.904Z,12.67
2018-06-01T08:31:36.178Z,11.53
2018-06-01T08:34:04.539Z,10.60
2018-06-01T08:36:33.016Z,10.83
2018-06-01T08:39:01.370Z,11.60
2018-06-01T08:41:29.708Z,9.03
2018-06-01T08:43:58.074Z,9.13
2018-06-01T08:46:26.945Z,8.70
2018-06-01T08:48:55.282Z,8.77
2018-06-01T08:51:23.615Z,7.87
2018-06-01T08:53:52.286Z,8.40
2018-06-01T08:56:20.986Z,7.20
2018-06-01T08:58:49.664Z,8.70
2018-06-01T09:01:18.323Z,8.20
2018-06-01T09:03:46.699Z,6.23
2018-06-01T09:06:15.058Z,6.03
2018-06-01T09:08:43.391Z,6.27
2018-06-01T09:11:12.079Z,6.23
2018-06-01T09:13:40.409Z,5.27
2018-06-01T09:16:08.789Z,6.47
2018-06-01T09:18:37.134Z,7.93
2018-06-01T09:21:05.821Z,5.33
2018-06-01T09:23:34.150Z,5.97
2018-06-01T09:26:02.530Z,8.23
2018-06-01T09:28:31.253Z,6.67
2018-06-01T09:30:59.946Z,6.00
2018-06-01T09:33:28.265Z,6.03
2018-06-01T09:35:56.630Z,6.57
2018-06-01T09:38:24.975Z,6.57
2018-06-01T09:40:53.870Z,5.97
2018-06-01T09:43:22.200Z,5.70
2018-06-01T09:45:50.833Z,5.80
2018-06-01T09:48:20.619Z,4.60
2018-06-01T09:50:49.015Z,5.23
2018-06-01T09:53:17.610Z,6.10
2018-06-01T09:55:45.972Z,5.63
2018-06-01T09:58:14.313Z,4.07
2018-06-01T10:00:48.477Z,4.00
2018-06-01T10:03:17.739Z,4.10
2018-06-01T10:05:46.830Z,6.93
2018-06-01T10:08:15.175Z,7.37
2018-06-01T10:10:43.534Z,4.20
2018-06-01T10:13:11.876Z,6.17
2018-06-01T10:15:40.266Z,4.47
2018-06-01T10:18:08.577Z,3.77
2018-06-01T10:20:36.929Z,5.77
2018-06-01T10:23:05.289Z,4.77
2018-06-01T10:25:33.646Z,3.87
2018-06-01T10:28:02.014Z,5.20
2018-06-01T10:30:30.350Z,5.50
2018-06-01T10:32:58.738Z,5.73
2018-06-01T10:35:27.046Z,6.03
2018-06-01T10:37:55.403Z,6.43
2018-06-01T10:40:23.745Z,4.97
2018-06-01T10:42:52.099Z,5.20
2018-06-01T10:45:20.481Z,6.47
2018-06-01T10:47:49.600Z,4.80
2018-06-01T10:50:17.930Z,5.83
2018-06-01T10:52:47.090Z,5.77
2018-06-01T10:55:15.436Z,5.93
2018-06-01T10:57:43.802Z,7.80
2018-06-01T11:00:12.130Z,6.30
2018-06-01T11:02:41.363Z,6.50
2018-06-01T11:05:09.702Z,5.37
2018-06-01T11:07:38.067Z,4.73
2018-06-01T11:10:06.858Z,5.53
2018-06-01T11:12:35.211Z,5.80
2018-06-01T11:15:03.537Z,5.90
2018-06-01T11:17:31.894Z,5.37
2018-06-01T11:20:00.328Z,9.37
2018-06-01T11:22:28.694Z,6.00
2018-06-01T11:24:57.032Z,4.60
2018-06-01T11:27:25.390Z,4.27
2018-06-01T11:29:53.725Z,4.23
2018-06-01T11:32:22.929Z,5.97
2018-06-01T11:34:52.040Z,6.67
2018-06-01T11:37:20.398Z,4.20
2018-06-01T11:39:48.742Z,6.93
2018-06-01T11:42:17.111Z,5.20
2018-06-01T11:44:45.902Z,3.87
2018-06-01T11:47:14.257Z,6.40
2018-06-01T11:49:42.594Z,4.77
2018-06-01T11:52:11.517Z,3.50
2018-06-01T11:54:39.848Z,4.63
2018-06-01T11:57:08.615Z,6.77
2018-06-01T11:59:37.717Z,5.60
2018-06-01T12:02:06.069Z,3.97
2018-06-01T12:04:34.440Z,6.27
2018-06-01T12:07:02.794Z,4.83
2018-06-01T12:09:31.225Z,3.43
2018-06-01T12:11:59.592Z,3.37
2018-06-01T12:14:27.924Z,2.80
2018-06-01T12:16:56.293Z,5.40
2018-06-01T12:19:24.632Z,5.13
2018-06-01T12:21:52.999Z,4.90
2018-06-01T12:24:21.349Z,3.53
2018-06-01T12:26:50.589Z,4.93
2018-06-01T12:29:18.958Z,2.53
2018-06-01T12:31:47.276Z,3.17
2018-06-01T12:34:15.970Z,2.43
2018-06-01T12:36:44.326Z,5.30
2018-06-01T12:39:13.193Z,4.97
2018-06-01T12:41:41.549Z,2.23
2018-06-01T12:44:09.947Z,5.17
2018-06-01T12:46:38.275Z,1.60
2018-06-01T12:49:06.625Z,4.40
2018-06-01T12:51:35.701Z,2.63
2018-06-01T12:54:04.087Z,4.27
2018-06-01T12:56:32.673Z,3.70
2018-06-01T12:59:01.023Z,2.47
2018-06-01T13:01:29.350Z,3.53
2018-06-01T13:03:57.722Z,2.67
2018-06-01T13:06:26.822Z,4.00
2018-06-01T13:08:55.222Z,3.30
2018-06-01T13:11:23.530Z,5.63
2018-06-01T13:13:51.895Z,1.97
2018-06-01T13:16:20.220Z,3.40
2018-06-01T13:18:48.621Z,3.57
2018-06-01T13:21:16.947Z,3.17
2018-06-01T13:23:46.245Z,2.47
2018-06-01T13:26:14.591Z,6.47
2018-06-01T13:28:44.393Z,5.30
2018-06-01T13:31:12.745Z,2.53
2018-06-01T13:33:41.378Z,4.67
2018-06-01T13:36:09.701Z,3.43
2018-06-01T13:38:38.069Z,3.10
2018-06-01T13:41:07.229Z,2.93
2018-06-01T13:43:36.429Z,2.53
2018-06-01T13:46:04.767Z,3.30
2018-06-01T13:48:33.125Z,7.50
2018-06-01T13:51:01.463Z,4.23
2018-06-01T13:53:29.822Z,3.90
2018-06-01T13:55:58.163Z,2.80
2018-06-01T13:58:26.958Z,2.67
2018-06-01T14:00:55.406Z,2.07
2018-06-01T14:03:23.760Z,2.70
2018-06-01T14:05:52.104Z,4.00
2018-06-01T14:08:20.456Z,2.30
2018-06-01T14:10:49.739Z,2.10
2018-06-01T14:13:18.099Z,2.20
2018-06-01T14:15:47.276Z,2.80
2018-06-01T14:18:15.651Z,3.10
2018-06-01T14:20:44.227Z,2.07
2018-06-01T14:23:12.590Z,1.87
2018-06-01T14:25:40.919Z,3.27
2018-06-01T14:28:09.327Z,4.13
2018-06-01T14:30:37.706Z,2.13
2018-06-01T14:33:06.067Z,2.13
2018-06-01T14:35:34.395Z,1.63
2018-06-01T14:38:03.482Z,2.93
2018-06-01T14:40:31.830Z,1.47
2018-06-01T14:43:00.190Z,2.67
2018-06-01T14:45:28.535Z,1.40
2018-06-01T14:47:56.890Z,2.37
2018-06-01T14:50:25.220Z,2.50
2018-06-01T14:52:53.577Z,2.57
2018-06-01T14:55:21.922Z,1.60
2018-06-01T14:57:50.301Z,1.20
2018-06-01T15:00:18.656Z,0.97
2018-06-01T15:02:47.023Z,1.20
2018-06-01T15:05:15.345Z,1.00
2018-06-01T15:07:44.109Z,1.97
2018-06-01T15:10:13.612Z,1.90
2018-06-01T15:12:42.783Z,1.30
2018-06-01T15:15:11.109Z,1.90
2018-06-01T15:17:39.474Z,4.07
2018-06-01T15:20:07.848Z,0.90
2018-06-01T15:22:36.194Z,1.00
2018-06-01T15:25:04.671Z,4.20
2018-06-01T15:27:33.044Z,2.40
2018-06-01T15:30:01.420Z,2.23
2018-06-01T15:32:29.784Z,1.10
2018-06-01T15:34:58.868Z,2.40
2018-06-01T15:37:27.232Z,2.67
2018-06-01T15:39:55.556Z,2.30
2018-06-01T15:42:23.934Z,3.33
2018-06-01T15:44:52.264Z,4.03
2018-06-01T15:47:20.657Z,2.13
2018-06-01T15:49:49.101Z,2.23
2018-06-01T15:52:18.299Z,2.33
2018-06-01T15:54:46.630Z,3.43
2018-06-01T15:57:15.569Z,1.83
2018-06-01T15:59:44.361Z,2.33
2018-06-01T16:02:12.700Z,1.70
2018-06-01T16:04:41.063Z,1.67
2018-06-01T16:07:09.700Z,1.17
2018-06-01T16:09:38.374Z,1.97
2018-06-01T16:12:06.704Z,1.93
2018-06-01T16:14:35.085Z,1.10
2018-06-01T16:17:03.731Z,1.20
2018-06-01T16:19:32.083Z,2.10
2018-06-01T16:22:00.406Z,0.80
2018-06-01T16:24:28.764Z,1.50
2018-06-01T16:26:57.097Z,2.10
2018-06-01T16:29:25.461Z,1.17
2018-06-01T16:31:54.511Z,1.57
2018-06-01T16:34:22.865Z,1.87
2018-06-01T16:36:51.204Z,0.90
2018-06-01T16:39:19.569Z,1.53
2018-06-01T16:41:47.909Z,1.20
2018-06-01T16:44:17.477Z,2.20
2018-06-01T16:46:47.291Z,1.00
2018-06-01T16:49:15.966Z,1.47
2018-06-01T16:51:44.286Z,2.30
2018-06-01T16:54:12.657Z,1.77
2018-06-01T16:56:41.018Z,1.40
2018-06-01T16:59:09.370Z,1.63
2018-06-01T17:01:37.696Z,2.13
2018-06-01T17:04:06.074Z,1.10
2018-06-01T17:06:34.408Z,1.40
2018-06-01T17:09:02.753Z,1.83
2018-06-01T17:11:31.103Z,2.10
2018-06-01T17:13:59.464Z,2.00
2018-06-01T17:16:27.802Z,2.13
2018-06-01T17:18:56.165Z,1.77
2018-06-01T17:21:24.551Z,1.47
2018-06-01T17:23:52.913Z,0.90
2018-06-01T17:26:21.609Z,0.90
2018-06-01T17:28:50.699Z,10.30
2018-06-01T17:31:19.039Z,7.40
2018-06-01T17:33:47.397Z,1.90
2018-06-01T17:36:15.746Z,1.37
2018-06-01T17:38:44.358Z,3.87
2018-06-01T17:41:13.315Z,2.93
2018-06-01T17:43:42.102Z,2.20
2018-06-01T17:46:10.452Z,1.70
2018-06-01T17:48:39.733Z,2.40
2018-06-01T17:51:08.492Z,1.30
2018-06-01T17:53:37.254Z,2.33
2018-06-01T17:56:05.592Z,1.10
2018-06-01T17:58:33.934Z,1.13
2018-06-01T18:01:02.282Z,0.90
2018-06-01T18:03:30.642Z,2.63
2018-06-01T18:05:59.203Z,3.33
2018-06-01T18:08:27.558Z,4.73
2018-06-01T18:10:55.902Z,6.23
2018-06-01T18:13:24.691Z,4.70
2018-06-01T18:15:53.014Z,4.97
2018-06-01T18:18:21.369Z,14.30
2018-06-01T18:20:50.131Z,8.30
2018-06-01T18:23:18.490Z,3.83
2018-06-01T18:25:46.831Z,15.33
2018-06-01T18:28:15.215Z,11.07
2018-06-01T18:30:43.558Z,23.57
2018-06-01T18:33:11.916Z,9.43
2018-06-01T18:35:40.263Z,25.70
2018-06-01T18:38:08.637Z,7.77
2018-06-01T18:40:37.588Z,2.77
2018-06-01T18:43:05.952Z,2.33
2018-06-01T18:45:34.281Z,3.30
2018-06-01T18:48:02.625Z,11.87
2018-06-01T18:50:31.001Z,0.70
2018-06-01T18:52:59.331Z,1.53
2018-06-01T18:55:27.684Z,1.00
2018-06-01T18:57:56.031Z,0.90
2018-06-01T19:00:24.440Z,1.93
2018-06-01T19:02:52.777Z,0.70
2018-06-01T19:05:21.281Z,1.67
2018-06-01T19:07:50.002Z,0.90
2018-06-01T19:10:18.352Z,1.47
2018-06-01T19:12:46.765Z,0.80
2018-06-01T19:15:15.127Z,0.90
2018-06-01T19:17:43.864Z,2.20
2018-06-01T19:20:13.059Z,0.60
2018-06-01T19:22:41.394Z,1.57
2018-06-01T19:25:09.742Z,0.90
2018-06-01T19:27:38.069Z,1.97
2018-06-01T19:30:06.446Z,3.03
2018-06-01T19:32:34.778Z,1.07
2018-06-01T19:35:03.130Z,1.53
2018-06-01T19:37:31.478Z,0.80
2018-06-01T19:39:59.842Z,1.10
2018-06-01T19:42:28.186Z,1.20
2018-06-01T19:44:57.339Z,0.87
2018-06-01T19:47:25.946Z,0.90
2018-06-01T19:49:54.299Z,1.20
2018-06-01T19:52:22.909Z,1.80
2018-06-01T19:54:52.412Z,1.53
2018-06-01T19:57:20.759Z,1.10
2018-06-01T19:59:49.144Z,1.20
2018-06-01T20:02:17.491Z,2.13
2018-06-01T20:04:45.866Z,2.77
2018-06-01T20:07:14.214Z,3.77
2018-06-01T20:09:42.570Z,2.37
2018-06-01T20:12:10.901Z,2.53
2018-06-01T20:14:39.250Z,1.90
2018-06-01T20:17:07.583Z,3.00
2018-06-01T20:19:36.797Z,1.70
2018-06-01T20:22:05.497Z,2.33
2018-06-01T20:24:34.275Z,1.97
2018-06-01T20:27:02.610Z,3.87
2018-06-01T20:29:30.968Z,3.10
2018-06-01T20:31:59.730Z,3.27
2018-06-01T20:34:28.094Z,53.07
2018-06-01T20:36:57.369Z,15.40
2018-06-01T20:39:25.733Z,9.17
2018-06-01T20:41:54.139Z,5.07
2018-06-01T20:44:22.590Z,4.00
2018-06-01T20:46:50.930Z,5.33
2018-06-01T20:49:19.285Z,7.17
2018-06-01T20:51:47.630Z,7.63
2018-06-01T20:54:15.997Z,6.53
2018-06-01T20:56:45.147Z,5.97
2018-06-01T20:59:13.484Z,6.00
2018-06-01T21:01:41.814Z,7.57
2018-06-01T21:04:10.174Z,7.33
2018-06-01T21:06:38.506Z,7.50
2018-06-01T21:09:06.920Z,8.47
2018-06-01T21:11:35.257Z,8.37
2018-06-01T21:14:04.356Z,10.23
2018-06-01T21:16:32.689Z,7.67
2018-06-01T21:19:01.402Z,7.60
2018-06-01T21:21:29.738Z,9.33
2018-06-01T21:23:58.128Z,7.33
2018-06-01T21:26:26.476Z,7.97
2018-06-01T21:28:55.099Z,7.53
2018-06-01T21:31:23.429Z,7.60
2018-06-01T21:33:51.799Z,7.93
2018-06-01T21:36:20.135Z,10.00
2018-06-01T21:38:48.550Z,8.73
2018-06-01T21:41:17.306Z,9.73
2018-06-01T21:43:45.881Z,8.70
2018-06-01T21:46:14.254Z,8.23
2018-06-01T21:48:42.630Z,8.13
2018-06-01T21:51:10.956Z,8.33
2018-06-01T21:53:39.298Z,9.20
2018-06-01T21:56:07.789Z,7.33
2018-06-01T21:58:36.213Z,11.53
2018-06-01T22:01:04.570Z,6.60
2018-06-01T22:03:32.905Z,10.87
2018-06-01T22:06:01.287Z,8.07
2018-06-01T22:08:29.625Z,10.50
2018-06-01T22:10:57.989Z,10.63
2018-06-01T22:13:26.335Z,11.27
2018-06-01T22:15:54.693Z,8.87
2018-06-01T22:18:23.030Z,8.80
2018-06-01T22:20:51.392Z,11.43
2018-06-01T22:23:19.729Z,10.07
2018-06-01T22:25:48.097Z,8.17
2018-06-01T22:28:16.499Z,9.20
2018-06-01T22:30:44.890Z,8.80
2018-06-01T22:33:13.239Z,8.63
2018-06-01T22:35:41.588Z,13.83
2018-06-01T22:38:09.937Z,10.90
2018-06-01T22:40:38.293Z,10.90
2018-06-01T22:43:06.648Z,13.47
2018-06-01T22:45:35.015Z,13.93
2018-06-01T22:48:03.359Z,13.33
2018-06-01T22:50:31.713Z,14.07
2018-06-01T22:53:01.610Z,12.80
2018-06-01T22:55:30.607Z,12.53
2018-06-01T22:57:59.277Z,13.77
2018-06-01T23:00:30.501Z,11.53
2018-06-01T23:02:58.907Z,14.83
2018-06-01T23:05:27.274Z,14.17
2018-06-01T23:07:55.971Z,14.37
2018-06-01T23:10:24.345Z,14.77
2018-06-01T23:12:52.685Z,16.83
2018-06-01T23:15:21.053Z,15.50
2018-06-01T23:17:49.402Z,14.10
2018-06-01T23:20:17.772Z,13.93
2018-06-01T23:22:46.127Z,16.23
2018-06-01T23:25:14.522Z,17.10
2018-06-01T23:27:43.043Z,18.23
2018-06-01T23:30:11.408Z,15.50
2018-06-01T23:32:39.761Z,16.10
2018-06-01T23:35:08.142Z,17.10
2018-06-01T23:37:36.481Z,15.97
2018-06-01T23:40:04.850Z,16.23
2018-06-01T23:42:33.232Z,18.67
2018-06-01T23:45:01.677Z,16.10
2018-06-01T23:47:30.029Z,17.37
2018-06-01T23:49:58.384Z,17.20
2018-06-01T23:52:26.869Z,14.67
2018-06-01T23:54:55.249Z,15.13
2018-06-01T23:57:24.380Z,15.93
2018-06-01T23:59:52.745Z,16.17
